Time;durP1;ratioP1;P1;durP2;ratioP2;P2;SDS_P1;SDS_P2;PMS_P1;PMS_P2;Temp;Humidity;BMP_temperature;BMP_pressure;BME280_temperature;BME280_humidity;BME280_pressure;Samples;Min_cycle;Max_cycle;Signal;HPM_P1;HPM_P2
2022/11/19 00:02:05;;;;;;;17.10;8.60;;;;;;;-1.93;89.70;97595.52;102024;1294;62664;-20
2022/11/19 00:04:33;;;;;;;13.40;7.50;;;;;;;-1.66;87.84;97590.70;101935;1299;61808;-20
2022/11/19 00:07:02;;;;;;;15.20;9.50;;;;;;;-1.70;87.70;97592.27;102180;1298;75450;-20
2022/11/19 00:09:30;;;;;;;14.50;8.30;;;;;;;-1.75;87.57;97594.20;101935;1304;75996;-20
2022/11/19 00:14:43;;;;;;;15.10;9.00;;;;;;;-2.12;89.47;97594.85;102248;1291;61433;-20
2022/11/19 00:17:11;;;;;;;14.60;8.70;;;;;;;-2.13;89.76;97593.19;102321;1298;61909;-20
2022/11/19 00:19:39;;;;;;;14.20;7.50;;;;;;;-2.42;90.64;97589.96;102225;1292;75389;-20
2022/11/19 00:22:06;;;;;;;13.60;8.80;;;;;;;-1.88;89.95;97594.09;102292;1298;75856;-21
2022/11/19 00:24:34;;;;;;;15.50;9.20;;;;;;;-1.42;87.08;97586.98;102277;1298;74588;-21
2022/11/19 00:27:02;;;;;;;11.30;7.20;;;;;;;-1.37;85.93;97582.77;102251;1299;61760;-20
2022/11/19 00:29:31;;;;;;;18.10;10.10;;;;;;;-1.71;86.72;97580.41;102226;1299;61819;-20
2022/11/19 00:31:59;;;;;;;16.80;9.20;;;;;;;-1.83;87.83;97576.64;102254;1299;75608;-20
2022/11/19 00:34:26;;;;;;;15.40;9.50;;;;;;;-2.00;88.58;97579.76;102203;1299;75598;-20
2022/11/19 00:36:54;;;;;;;14.90;9.90;;;;;;;-2.52;90.32;97578.35;102208;1291;74249;-20
2022/11/19 00:39:22;;;;;;;12.30;7.10;;;;;;;-2.37;91.15;97578.98;102225;1291;61531;-20
2022/11/19 00:41:50;;;;;;;14.40;8.90;;;;;;;-1.99;89.72;97583.92;102048;1299;61859;-20
2022/11/19 00:44:17;;;;;;;13.00;5.80;;;;;;;-1.87;88.62;97585.53;102210;1299;75154;-20
2022/11/19 00:46:45;;;;;;;19.50;11.50;;;;;;;-2.01;89.08;97588.30;102259;1291;75905;-20
2022/11/19 00:49:13;;;;;;;17.70;9.00;;;;;;;-1.97;88.94;97587.75;102186;1299;74409;-21
2022/11/19 00:51:40;;;;;;;22.80;11.20;;;;;;;-2.27;90.03;97585.08;102305;1292;61001;-20
2022/11/19 00:54:08;;;;;;;7.50;5.70;;;;;;;-2.29;90.34;97582.45;102301;1292;61725;-20
2022/11/19 00:56:35;;;;;;;13.80;8.30;;;;;;;-2.28;90.60;97577.13;102366;1291;75441;-21
2022/11/19 00:59:03;;;;;;;13.00;8.10;;;;;;;-1.98;89.19;97578.13;102290;1292;75800;-20
2022/11/19 01:01:31;;;;;;;17.00;11.40;;;;;;;-2.31;89.81;97573.24;102185;1299;74313;-20
2022/11/19 01:03:58;;;;;;;17.70;10.80;;;;;;;-2.21;90.22;97574.22;102201;1299;61222;-20
2022/11/19 01:06:27;;;;;;;15.70;10.20;;;;;;;-2.45;90.65;97570.39;102213;1291;61863;-20
2022/11/19 01:08:56;;;;;;;20.60;12.70;;;;;;;-2.65;91.78;97565.63;102032;1298;75418;-20
2022/11/19 01:11:25;;;;;;;18.90;11.40;;;;;;;-2.74;92.58;97569.30;101912;1298;75646;-21
2022/11/19 01:13:52;;;;;;;15.10;8.00;;;;;;;-2.51;91.88;97564.90;102065;1294;73396;-20
2022/11/19 01:16:25;;;;;;;11.00;7.40;;;;;;;-2.36;91.19;97568.38;102339;1299;61756;-20
2022/11/19 01:18:53;;;;;;;18.50;11.80;;;;;;;-2.49;90.71;97572.77;102021;1301;62820;-20
2022/11/19 01:21:22;;;;;;;21.60;13.00;;;;;;;-2.46;91.06;97572.47;101902;1297;75222;-20
2022/11/19 01:23:50;;;;;;;17.90;10.20;;;;;;;-2.62;91.85;97571.05;101918;1297;76012;-20
2022/11/19 01:26:18;;;;;;;22.60;12.90;;;;;;;-2.78;92.30;97571.02;102340;1298;74202;-20
2022/11/19 01:28:47;;;;;;;22.00;12.10;;;;;;;-2.38;91.62;97576.48;102331;1297;61134;-21
2022/11/19 01:31:18;;;;;;;14.80;9.90;;;;;;;-2.27;90.47;97577.63;102171;1293;61883;-20
2022/11/19 01:33:46;;;;;;;10.90;7.90;;;;;;;-2.46;90.52;97575.86;101919;1298;75477;-20
2022/11/19 01:36:16;;;;;;;21.60;13.20;;;;;;;-2.50;90.83;97576.71;102016;1301;75762;-20
2022/11/19 01:38:49;;;;;;;21.10;12.60;;;;;;;-2.78;91.72;97574.93;102062;1301;74040;-20
2022/11/19 01:41:18;;;;;;;19.20;12.40;;;;;;;-2.75;92.72;97574.95;101986;1300;61689;-21
2022/11/19 01:43:49;;;;;;;15.70;10.10;;;;;;;-2.58;92.11;97580.91;102091;1294;61010;-20
2022/11/19 01:46:23;;;;;;;16.50;10.90;;;;;;;-2.20;90.44;97585.72;101956;1299;75319;-20
2022/11/19 01:48:53;;;;;;;17.50;11.90;;;;;;;-2.19;89.38;97585.36;101877;1299;75136;-21
2022/11/19 01:51:38;;;;;;;19.00;11.40;;;;;;;-2.31;89.35;97584.59;101948;1294;74114;-20
2022/11/19 01:54:19;;;;;;;15.40;9.70;;;;;;;-2.21;89.70;97581.20;102216;1301;61169;-20
2022/11/19 01:56:47;;;;;;;20.90;12.70;;;;;;;-2.42;90.03;97581.45;101929;1304;61783;-21
2022/11/19 01:59:15;;;;;;;15.40;9.40;;;;;;;-2.55;90.72;97583.63;101908;1299;75356;-20
2022/11/19 02:01:44;;;;;;;20.80;11.00;;;;;;;-2.16;89.68;97587.23;101952;1285;75114;-20
2022/11/19 02:04:13;;;;;;;18.30;10.50;;;;;;;-2.10;88.14;97589.61;102150;1301;74151;-21
2022/11/19 02:06:41;;;;;;;20.20;11.40;;;;;;;-1.99;87.77;97593.27;101937;1302;61469;-20
2022/11/19 02:09:09;;;;;;;19.80;11.50;;;;;;;-2.31;88.78;97593.26;102098;1278;61893;-21
2022/11/19 02:11:43;;;;;;;22.80;12.30;;;;;;;-2.44;89.46;97592.91;102236;1291;75013;-20
2022/11/19 02:14:19;;;;;;;15.90;11.00;;;;;;;-2.61;90.41;97592.59;102284;1298;75640;-20
2022/11/19 02:17:17;;;;;;;20.00;11.60;;;;;;;-2.52;90.87;97587.05;102041;1299;74210;-20
2022/11/19 02:20:30;;;;;;;15.90;9.70;;;;;;;-2.30;89.49;97587.63;102204;1299;61048;-20
2022/11/19 02:23:19;;;;;;;17.80;11.50;;;;;;;-2.28;89.36;97581.88;102176;1299;61122;-21
2022/11/19 02:26:19;;;;;;;17.90;11.00;;;;;;;-2.57;90.12;97580.85;102322;1298;75378;-21
2022/11/19 02:28:59;;;;;;;17.10;11.70;;;;;;;-2.66;91.40;97583.52;102076;1299;75867;-20
2022/11/19 02:32:10;;;;;;;17.30;8.50;;;;;;;-2.64;91.42;97583.91;102139;1295;74064;-20
2022/11/19 02:34:41;;;;;;;15.20;10.10;;;;;;;-2.37;90.14;97582.23;102114;1302;61269;-20
2022/11/19 02:37:09;;;;;;;16.20;9.70;;;;;;;-2.31;89.97;97583.75;101990;1301;62275;-20
2022/11/19 02:39:47;;;;;;;14.40;9.50;;;;;;;-2.23;89.32;97589.63;102346;1298;75613;-21
2022/11/19 02:42:21;;;;;;;14.60;10.40;;;;;;;-2.63;90.51;97590.15;102200;1299;74817;-20
2022/11/19 02:45:01;;;;;;;17.60;11.10;;;;;;;-2.73;91.57;97592.02;102152;1301;73333;-20
2022/11/19 02:47:44;;;;;;;14.00;8.70;;;;;;;-2.33;90.85;97596.80;102186;1299;61389;-20
2022/11/19 02:50:24;;;;;;;13.30;9.10;;;;;;;-2.27;89.36;97592.40;101929;1297;61151;-21
2022/11/19 02:52:52;;;;;;;15.80;9.70;;;;;;;-2.33;89.31;97593.72;102113;1299;74362;-20
2022/11/19 02:55:20;;;;;;;17.30;10.50;;;;;;;-2.60;90.10;97593.91;102354;1291;75758;-19
2022/11/19 02:58:03;;;;;;;15.50;10.40;;;;;;;-2.75;91.10;97594.86;102275;1298;74289;-19
2022/11/19 03:06:33;;;;;;;15.80;9.70;;;;;;;-2.21;88.93;97599.37;102199;1299;75108;-20
2022/11/19 03:09:01;;;;;;;11.90;8.20;;;;;;;-2.41;89.36;97605.36;102222;1294;74743;-20
2022/11/19 03:11:30;;;;;;;13.00;8.10;;;;;;;-2.38;89.72;97607.55;102055;1294;74444;-20
2022/11/19 03:17:08;;;;;;;12.30;7.60;;;;;;;-2.64;90.65;97611.44;101993;1302;61715;-21
2022/11/19 03:19:40;;;;;;;10.70;7.50;;;;;;;-2.15;89.11;97613.86;102051;1299;75162;-20
2022/11/19 03:22:21;;;;;;;12.60;8.20;;;;;;;-2.01;88.09;97610.60;101987;1302;75823;-21
2022/11/19 03:24:51;;;;;;;9.80;7.20;;;;;;;-2.40;88.72;97605.13;102033;1300;73308;-20
2022/11/19 03:27:24;;;;;;;11.00;7.30;;;;;;;-2.47;89.10;97615.67;102005;1297;61276;-20
2022/11/19 03:29:53;;;;;;;;;;;;;;;-2.66;89.98;97619.86;102207;1295;61158;-20
2022/11/19 03:32:34;;;;;;;11.70;7.90;;;;;;;-2.39;89.80;97621.89;102337;1291;75751;-20
2022/11/19 03:35:06;;;;;;;19.60;9.40;;;;;;;-1.90;87.56;97620.55;101916;1297;75788;-20
2022/11/19 03:37:34;;;;;;;26.70;11.90;;;;;;;-2.00;86.72;97625.84;101876;1304;74296;-20
2022/11/19 03:40:02;;;;;;;30.70;14.10;;;;;;;-2.09;87.48;97630.23;102268;1298;61149;-20
2022/11/19 03:42:29;;;;;;;25.60;11.20;;;;;;;-2.08;87.37;97630.54;102048;1294;62029;-20
2022/11/19 03:45:01;;;;;;;41.60;16.10;;;;;;;-2.45;88.28;97630.73;102019;1298;75323;-20
2022/11/19 03:47:36;;;;;;;53.10;21.00;;;;;;;-2.68;89.84;97625.75;101933;1295;75807;-20
2022/11/19 03:50:17;;;;;;;80.80;29.00;;;;;;;-2.15;88.86;97628.86;102145;1291;74288;-20
2022/11/19 03:52:45;;;;;;;86.20;28.50;;;;;;;-2.00;87.12;97630.80;102000;1300;61748;-20
2022/11/19 03:55:14;;;;;;;70.80;25.70;;;;;;;-1.93;87.01;97638.73;102239;1297;61201;-20
2022/11/19 03:57:42;;;;;;;25.10;11.80;;;;;;;-2.10;87.03;97640.49;102017;1300;74567;-20
2022/11/19 04:00:11;;;;;;;8.60;5.90;;;;;;;-2.38;88.05;97639.02;102123;1299;75685;-21
2022/11/19 04:02:39;;;;;;;24.60;11.80;;;;;;;-2.54;88.99;97634.75;101947;1296;73104;-20
2022/11/19 04:05:08;;;;;;;14.10;8.60;;;;;;;-2.37;88.71;97636.77;102273;1299;62748;-20
2022/11/19 04:07:36;;;;;;;33.30;15.30;;;;;;;-2.05;87.36;97638.35;101964;1299;61175;-19
2022/11/19 04:10:04;;;;;;;25.00;12.10;;;;;;;-1.90;86.19;97641.16;102210;1292;74981;-20
2022/11/19 04:12:32;;;;;;;22.40;12.80;;;;;;;-2.23;86.70;97646.95;101989;1300;75816;-20
2022/11/19 04:15:00;;;;;;;5.90;4.30;;;;;;;-2.29;87.41;97653.89;102229;1299;74410;-20
2022/11/19 04:17:27;;;;;;;7.10;4.50;;;;;;;-2.53;88.35;97658.30;102269;1299;61079;-19
2022/11/19 04:19:55;;;;;;;8.70;5.00;;;;;;;-2.66;88.92;97660.48;102234;1299;62105;-20
2022/11/19 04:22:23;;;;;;;8.60;5.10;;;;;;;-2.21;88.21;97667.41;102340;1291;75407;-20
2022/11/19 04:24:54;;;;;;;7.50;4.60;;;;;;;-1.86;86.51;97674.63;102343;1299;75846;-19
2022/11/19 04:27:21;;;;;;;6.30;4.60;;;;;;;-2.06;86.02;97679.88;102282;1297;74475;-20
2022/11/19 04:29:49;;;;;;;7.00;4.90;;;;;;;-2.19;86.54;97684.13;102193;1298;61059;-20
2022/11/19 04:32:17;;;;;;;6.30;4.50;;;;;;;-2.28;86.72;97684.24;102239;1299;61468;-20
2022/11/19 04:34:44;;;;;;;5.50;4.00;;;;;;;-2.69;87.98;97689.52;102233;1298;74183;-20
2022/11/19 04:37:12;;;;;;;4.90;3.10;;;;;;;-2.76;89.34;97692.41;102242;1299;75558;-20
2022/11/19 04:39:45;;;;;;;8.30;5.00;;;;;;;-2.30;88.08;97695.92;102224;1299;74086;-20
2022/11/19 04:42:13;;;;;;;5.40;4.60;;;;;;;-2.14;86.50;97694.75;102270;1291;61114;-20
2022/11/19 04:44:41;;;;;;;8.70;5.90;;;;;;;-2.45;86.93;97693.78;102111;1300;61744;-20
2022/11/19 04:47:10;;;;;;;8.10;5.60;;;;;;;-2.64;88.03;97702.51;102051;1297;75395;-20
2022/11/19 04:49:40;;;;;;;9.70;5.50;;;;;;;-2.85;88.71;97710.15;102318;1299;75566;-20
2022/11/19 04:52:07;;;;;;;7.90;4.50;;;;;;;-2.81;89.53;97713.72;102317;1299;74080;-20
2022/11/19 04:54:36;;;;;;;6.20;4.30;;;;;;;-2.36;87.93;97718.80;102321;1299;61122;-20
2022/11/19 04:57:04;;;;;;;3.50;2.40;;;;;;;-2.32;87.07;97725.94;102233;1296;62009;-19
2022/11/19 04:59:33;;;;;;;9.50;5.90;;;;;;;-2.38;87.03;97732.65;102320;1297;75408;-20
2022/11/19 05:02:00;;;;;;;7.90;5.40;;;;;;;-2.47;87.40;97730.74;102286;1299;74732;-20
2022/11/19 05:04:28;;;;;;;4.50;3.40;;;;;;;-2.74;88.16;97732.90;102304;1299;74072;-19
2022/11/19 05:06:56;;;;;;;5.90;4.10;;;;;;;-2.89;89.14;97732.59;102326;1299;61069;-20
2022/11/19 05:09:24;;;;;;;6.70;4.80;;;;;;;-2.67;88.90;97736.30;102324;1299;61891;-20
2022/11/19 05:11:52;;;;;;;7.70;5.00;;;;;;;-2.26;87.13;97738.55;102305;1296;75409;-20
2022/11/19 05:14:20;;;;;;;8.70;5.40;;;;;;;-2.14;85.97;97737.60;102217;1299;75753;-20
2022/11/19 05:16:49;;;;;;;8.80;4.90;;;;;;;-2.45;86.08;97737.60;102254;1299;74277;-19
2022/11/19 05:19:17;;;;;;;5.80;4.70;;;;;;;-2.59;87.13;97749.36;102258;1297;61087;-20
2022/11/19 05:21:45;;;;;;;6.80;4.70;;;;;;;-2.81;88.03;97758.89;102109;1291;61069;-19
2022/11/19 05:24:13;;;;;;;7.30;4.50;;;;;;;-2.78;88.69;97761.98;102316;1298;75521;-20
2022/11/19 05:26:42;;;;;;;7.70;5.50;;;;;;;-2.39;86.97;97765.56;102272;1297;75829;-20
2022/11/19 05:29:11;;;;;;;5.50;3.30;;;;;;;-2.17;85.96;97773.14;102299;1299;74271;-20
2022/11/19 05:31:38;;;;;;;7.20;4.50;;;;;;;-2.00;84.82;97775.67;102265;1298;61071;-19
2022/11/19 05:34:13;;;;;;;6.70;4.10;;;;;;;-2.29;85.00;97778.16;102278;1299;61781;-19
2022/11/19 05:36:41;;;;;;;5.40;2.90;;;;;;;-2.60;85.81;97786.27;102250;1298;75316;-20
2022/11/19 05:39:09;;;;;;;7.60;5.20;;;;;;;-2.70;86.55;97787.09;102238;1297;75525;-19
2022/11/19 05:41:37;;;;;;;7.50;4.00;;;;;;;-2.82;87.17;97792.54;102238;1299;74333;-20
2022/11/19 05:44:04;;;;;;;10.70;4.90;;;;;;;-2.26;86.34;97797.70;102182;1298;61011;-20
2022/11/19 05:46:32;;;;;;;8.10;4.80;;;;;;;-2.14;84.66;97799.85;102245;1291;61172;-20
2022/11/19 05:49:01;;;;;;;8.20;5.10;;;;;;;-2.31;84.70;97807.80;102352;1291;75077;-20
2022/11/19 05:51:28;;;;;;;5.00;3.90;;;;;;;-2.47;85.54;97808.78;102338;1299;77332;-20
2022/11/19 05:53:56;;;;;;;5.00;4.30;;;;;;;-2.65;85.93;97815.55;102338;1299;74261;-20
2022/11/19 05:56:24;;;;;;;5.30;3.80;;;;;;;-2.88;87.46;97830.88;102045;1302;61193;-19
2022/11/19 05:58:51;;;;;;;5.50;3.60;;;;;;;-2.69;87.39;97845.16;102347;1292;61691;-20
2022/11/19 06:01:25;;;;;;;5.00;3.90;;;;;;;-2.33;85.90;97853.84;102321;1299;75284;-20
2022/11/19 06:03:53;;;;;;;7.50;3.90;;;;;;;-2.25;84.68;97854.31;102014;1302;75861;-20
2022/11/19 06:06:21;;;;;;;4.70;3.30;;;;;;;-2.58;85.60;97857.58;102296;1298;74293;-20
2022/11/19 06:08:49;;;;;;;5.40;3.00;;;;;;;-2.70;86.61;97865.25;102131;1294;61101;-20
2022/11/19 06:14:04;;;;;;;5.50;3.00;;;;;;;-2.89;88.03;97874.73;102180;1294;75577;-20
2022/11/19 06:16:32;;;;;;;4.90;3.20;;;;;;;-2.42;86.12;97878.55;102323;1298;75852;-20
2022/11/19 06:18:59;;;;;;;4.60;3.30;;;;;;;-2.53;85.74;97883.46;102280;1291;74222;-20
2022/11/19 06:21:27;;;;;;;4.50;3.50;;;;;;;-2.55;86.06;97888.50;102244;1299;61047;-20
2022/11/19 06:23:55;;;;;;;4.60;3.60;;;;;;;-2.58;86.13;97892.57;101985;1304;61770;-20
2022/11/19 06:26:24;;;;;;;10.20;3.80;;;;;;;-2.89;86.70;97894.48;102314;1297;74445;-20
2022/11/19 06:28:52;;;;;;;6.10;3.30;;;;;;;-2.88;87.72;97900.17;101937;1304;74629;-20
2022/11/19 06:31:19;;;;;;;4.80;3.50;;;;;;;-2.49;86.32;97907.43;101888;1299;73755;-20
2022/11/19 06:33:47;;;;;;;4.90;3.50;;;;;;;-2.41;85.05;97909.27;102243;1298;61799;-20
2022/11/19 06:36:14;;;;;;;4.70;3.60;;;;;;;-2.32;85.20;97914.14;102393;1297;61716;-20
2022/11/19 06:38:42;;;;;;;3.60;2.50;;;;;;;-2.34;84.51;97914.55;102354;1297;75373;-20
2022/11/19 06:41:10;;;;;;;5.00;3.30;;;;;;;-2.66;85.91;97916.55;102376;1299;76104;-19
2022/11/19 06:43:38;;;;;;;6.00;3.80;;;;;;;-2.87;86.74;97918.49;102336;1298;74272;-20
2022/11/19 06:46:05;;;;;;;5.50;3.70;;;;;;;-2.65;86.63;97921.41;102170;1299;61823;-20
2022/11/19 06:48:33;;;;;;;5.20;2.80;;;;;;;-2.23;85.04;97932.05;101990;1305;62002;-20
2022/11/19 06:51:01;;;;;;;7.30;4.30;;;;;;;-2.02;84.08;97935.49;102383;1299;75680;-20
2022/11/19 06:53:29;;;;;;;6.00;3.30;;;;;;;-2.23;84.15;97939.72;102140;1293;75569;-20
2022/11/19 06:55:57;;;;;;;4.60;3.30;;;;;;;-2.36;84.62;97952.74;102314;1291;72105;-21
2022/11/19 06:58:25;;;;;;;5.00;2.80;;;;;;;-2.44;85.21;97954.30;102014;1302;61162;-19
2022/11/19 07:00:53;;;;;;;3.10;2.40;;;;;;;-2.46;85.05;97960.01;102290;1291;61754;-19
2022/11/19 07:03:21;;;;;;;5.60;4.20;;;;;;;-2.54;85.57;97958.67;102184;1291;75061;-20
2022/11/19 07:05:49;;;;;;;4.50;3.30;;;;;;;-2.41;85.16;97957.40;102313;1298;75830;-20
2022/11/19 07:08:17;;;;;;;5.30;3.10;;;;;;;-2.06;83.99;97962.06;102007;1301;73105;-19
2022/11/19 07:10:44;;;;;;;2.90;2.00;;;;;;;-1.97;83.11;97969.11;102349;1300;61149;-20
2022/11/19 07:13:12;;;;;;;6.50;3.30;;;;;;;-2.28;83.83;97973.61;102127;1298;61597;-19
2022/11/19 07:15:42;;;;;;;5.50;4.10;;;;;;;-2.59;84.97;97969.23;102306;1299;75317;-20
2022/11/19 07:18:09;;;;;;;3.80;3.10;;;;;;;-2.78;86.17;97966.54;102307;1299;75614;-19
2022/11/19 07:20:39;;;;;;;4.50;2.90;;;;;;;-2.57;85.78;97972.20;102347;1299;72514;-20
2022/11/19 07:23:10;;;;;;;3.70;2.80;;;;;;;-2.05;84.12;97978.02;102352;1299;61026;-20
2022/11/19 07:25:39;;;;;;;5.40;3.50;;;;;;;-1.92;82.48;97986.94;101944;1305;61801;-20
2022/11/19 07:34:34;;;;;;;5.10;3.20;;;;;;;-2.35;84.34;98003.34;99141;1336;599368;-19
2022/11/19 07:37:01;;;;;;;4.60;3.20;;;;;;;-2.18;84.21;98006.84;101249;1311;63749;-19
2022/11/19 07:39:29;;;;;;;4.80;3.20;;;;;;;-1.85;82.53;98010.07;101081;1304;61127;-19
2022/11/19 07:44:43;;;;;;;3.70;3.00;;;;;;;-2.07;83.32;98023.84;101027;1312;76647;-19
2022/11/19 07:47:10;;;;;;;3.50;2.70;;;;;;;-1.97;82.79;98031.23;100105;1314;1207625;-20
2022/11/19 07:49:38;;;;;;;3.00;2.70;;;;;;;-2.32;84.08;98036.38;101204;1307;62154;-19
2022/11/19 07:52:05;;;;;;;4.90;3.20;;;;;;;-2.58;85.45;98040.92;101250;1304;62705;-20
2022/11/19 07:54:33;;;;;;;4.70;3.40;;;;;;;-2.43;85.34;98047.40;101237;1303;73817;-19
2022/11/19 07:57:00;;;;;;;5.20;3.70;;;;;;;-2.08;84.10;98054.00;101282;1311;76829;-19
2022/11/19 07:59:28;;;;;;;6.70;3.90;;;;;;;-2.05;83.47;98054.87;101290;1312;75227;-19
2022/11/19 08:01:55;;;;;;;4.40;3.10;;;;;;;-1.88;83.09;98064.31;101424;1310;61186;-19
2022/11/19 08:04:23;;;;;;;7.90;3.90;;;;;;;-2.10;83.20;98064.45;101290;1304;62884;-19
2022/11/19 08:06:51;;;;;;;4.60;3.10;;;;;;;-2.34;84.40;98059.27;101206;1309;74528;-20
2022/11/19 08:09:18;;;;;;;4.90;4.00;;;;;;;-2.50;85.61;98062.30;101484;1304;76571;-19
2022/11/19 08:11:47;;;;;;;5.90;3.60;;;;;;;-2.52;85.58;98065.45;101276;1313;75141;-19
2022/11/19 08:14:14;;;;;;;4.70;3.30;;;;;;;-1.99;83.83;98077.41;101339;1304;62109;-19
2022/11/19 08:19:28;;;;;;;4.20;3.10;;;;;;;-2.01;82.87;98084.10;101132;1312;74640;-19
2022/11/19 08:21:56;;;;;;;4.90;3.60;;;;;;;-2.24;83.47;98095.20;101111;1305;75891;-19
2022/11/19 08:24:23;;;;;;;7.80;5.30;;;;;;;-2.41;84.35;98103.08;101226;1311;73942;-19
2022/11/19 08:26:51;;;;;;;4.30;3.50;;;;;;;-2.49;85.15;98104.95;101185;1307;62133;-19
2022/11/19 08:29:19;;;;;;;5.30;3.40;;;;;;;-2.47;84.78;98109.79;101287;1304;63080;-19
2022/11/19 08:31:47;;;;;;;3.40;2.60;;;;;;;-1.94;82.96;98113.96;101234;1305;75572;-20
2022/11/19 08:34:15;;;;;;;4.60;3.80;;;;;;;-1.87;82.27;98114.27;101198;1311;75405;-19
2022/11/19 08:36:43;;;;;;;6.60;3.30;;;;;;;-1.94;82.12;98123.63;101302;1312;74539;-19
2022/11/19 08:39:11;;;;;;;3.10;2.30;;;;;;;-2.13;82.88;98118.70;101225;1311;61422;-19
2022/11/19 08:44:25;;;;;;;3.70;3.30;;;;;;;-2.39;84.51;98120.01;101181;1312;75659;-19
2022/11/19 08:46:52;;;;;;;3.60;2.80;;;;;;;-2.28;84.24;98115.92;101214;1312;77230;-19
2022/11/19 08:49:20;;;;;;;5.60;3.70;;;;;;;-1.93;82.59;98110.00;101161;1311;74309;-19
2022/11/19 08:51:47;;;;;;;4.30;3.10;;;;;;;-2.12;82.58;98100.25;101308;1304;62114;-19
2022/11/19 08:54:15;;;;;;;4.60;3.40;;;;;;;-2.21;83.44;98093.89;101263;1312;61695;-19
2022/11/19 08:56:43;;;;;;;4.20;3.10;;;;;;;-2.13;83.56;98101.00;101317;1311;75317;-20
2022/11/19 08:59:11;;;;;;;9.30;3.80;;;;;;;-1.88;82.66;98111.13;101918;1302;76688;-19
2022/11/19 09:01:38;;;;;;;6.50;3.20;;;;;;;-2.02;82.36;98119.73;101900;1297;75218;-19
2022/11/19 09:04:06;;;;;;;4.70;3.30;;;;;;;-2.01;82.90;98123.58;101891;1304;63897;-19
2022/11/19 09:06:33;;;;;;;5.30;3.20;;;;;;;-1.64;81.46;98126.52;101922;1302;61804;-19
2022/11/19 09:09:03;;;;;;;4.80;3.70;;;;;;;-1.24;79.84;98122.63;101902;1298;75582;-19
2022/11/19 09:11:31;;;;;;;6.80;3.60;;;;;;;-1.27;79.11;98123.78;102385;1299;76970;-19
2022/11/19 09:13:58;;;;;;;4.40;3.00;;;;;;;-1.43;79.14;98126.41;102225;1294;75150;-19
2022/11/19 09:16:26;;;;;;;4.00;2.80;;;;;;;-1.71;80.71;98124.45;101945;1299;61753;-19
2022/11/19 09:18:54;;;;;;;4.20;3.60;;;;;;;-1.98;81.57;98129.41;102278;1298;61183;-19
2022/11/19 09:21:24;;;;;;;6.10;4.00;;;;;;;-2.12;82.53;98135.47;102125;1301;75747;-19
2022/11/19 09:23:52;;;;;;;6.30;4.50;;;;;;;-2.16;83.10;98139.58;102261;1299;76684;-19
2022/11/19 09:26:20;;;;;;;5.50;3.50;;;;;;;-1.68;81.85;98149.02;102357;1295;73140;-19
2022/11/19 09:28:50;;;;;;;5.20;3.50;;;;;;;-1.41;80.53;98147.95;102289;1301;62086;-19
2022/11/19 09:31:18;;;;;;;5.30;3.60;;;;;;;-1.65;81.03;98146.30;102287;1299;62897;-19
2022/11/19 09:33:48;;;;;;;4.50;3.40;;;;;;;-2.03;82.06;98148.66;102040;1299;74457;-19
2022/11/19 09:36:17;;;;;;;6.30;4.10;;;;;;;-1.96;82.55;98160.48;101934;1297;76788;-20
2022/11/19 09:38:44;;;;;;;4.60;3.30;;;;;;;-2.21;82.43;98171.74;102180;1299;73224;-19
2022/11/19 09:41:25;;;;;;;5.40;3.60;;;;;;;-2.36;83.63;98179.52;102141;1291;62587;-19
2022/11/19 09:44:01;;;;;;;5.10;3.10;;;;;;;-1.86;82.19;98191.66;102029;1297;62749;-19
2022/11/19 09:46:37;;;;;;;5.00;3.60;;;;;;;-1.55;81.14;98192.86;101970;1283;75566;-19
2022/11/19 09:49:10;;;;;;;4.20;3.10;;;;;;;-1.64;81.05;98192.91;102020;1294;76744;-19
2022/11/19 09:51:38;;;;;;;5.40;3.70;;;;;;;-1.71;81.71;98202.58;102010;1301;72989;-19
2022/11/19 09:54:10;;;;;;;5.20;4.10;;;;;;;-1.92;82.11;98213.36;102106;1304;61185;-19
2022/11/19 09:56:39;;;;;;;4.70;3.00;;;;;;;-2.09;83.07;98219.71;102019;1303;62673;-19
2022/11/19 09:59:30;;;;;;;6.00;3.60;;;;;;;-2.08;83.13;98216.92;101913;1297;73380;-19
2022/11/19 10:01:58;;;;;;;8.30;4.10;;;;;;;-1.89;82.32;98220.23;102313;1291;76861;-19
2022/11/19 10:04:27;;;;;;;4.90;3.60;;;;;;;-1.92;82.73;98229.70;102043;1291;74196;-19
2022/11/19 10:07:07;;;;;;;7.30;3.60;;;;;;;-1.79;82.38;98238.47;101918;1304;61656;-19
2022/11/19 10:09:38;;;;;;;4.50;3.60;;;;;;;-1.72;81.99;98244.98;102165;1299;61835;-20
2022/11/19 10:12:24;;;;;;;7.30;4.20;;;;;;;-2.09;83.13;98237.73;102152;1294;74238;-19
2022/11/19 10:15:15;;;;;;;9.20;5.80;;;;;;;-2.30;84.35;98238.30;102273;1299;76458;-19
2022/11/19 10:17:56;;;;;;;8.80;6.10;;;;;;;-1.81;83.08;98231.95;102317;1301;75048;-19
2022/11/19 10:20:39;;;;;;;7.00;4.90;;;;;;;-1.79;82.70;98236.45;102132;1294;61833;-19
2022/11/19 10:23:17;;;;;;;9.60;4.80;;;;;;;-1.92;82.35;98247.77;102143;1299;61812;-19
2022/11/19 10:25:46;;;;;;;8.70;5.50;;;;;;;-1.99;82.79;98251.77;102015;1297;75579;-19
2022/11/19 10:28:17;;;;;;;7.50;5.50;;;;;;;-2.26;83.72;98244.41;102023;1304;76728;-19
2022/11/19 10:30:54;;;;;;;9.40;5.40;;;;;;;-2.39;84.35;98251.23;102005;1299;74200;-19
2022/11/19 10:33:28;;;;;;;8.50;5.40;;;;;;;-2.10;83.95;98256.14;102150;1295;61859;-19
2022/11/19 10:36:07;;;;;;;11.10;5.70;;;;;;;-1.95;83.15;98268.80;102245;1299;62982;-19
2022/11/19 10:38:50;;;;;;;9.40;5.10;;;;;;;-1.96;83.30;98276.64;102131;1300;75472;-19
2022/11/19 10:41:44;;;;;;;7.20;5.70;;;;;;;-2.02;83.46;98283.55;102090;1299;76840;-19
2022/11/19 10:44:42;;;;;;;8.30;5.10;;;;;;;-2.31;83.95;98289.67;101844;1295;74216;-19
2022/11/19 10:47:21;;;;;;;8.50;5.80;;;;;;;-2.37;84.95;98286.18;101933;1300;61372;-19
2022/11/19 10:49:55;;;;;;;8.70;4.90;;;;;;;-1.83;83.29;98289.55;102245;1302;62671;-19
2022/11/19 10:52:27;;;;;;;9.00;5.90;;;;;;;-1.51;82.12;98298.91;102148;1301;74457;-19
2022/11/19 10:55:22;;;;;;;8.80;6.10;;;;;;;-1.86;82.36;98296.97;102127;1299;75563;-19
2022/11/19 10:57:57;;;;;;;7.30;4.40;;;;;;;-1.90;82.97;98302.27;101839;1304;75010;-19
2022/11/19 11:00:24;;;;;;;11.00;5.80;;;;;;;-1.84;83.00;98305.42;102151;1299;61088;-19
2022/11/19 11:02:56;;;;;;;6.20;4.20;;;;;;;-1.75;83.09;98309.12;102278;1299;62834;-19
2022/11/19 11:05:23;;;;;;;9.90;6.10;;;;;;;-1.26;81.41;98307.83;102001;1304;74310;-19
2022/11/19 11:07:53;;;;;;;9.00;4.80;;;;;;;-1.36;80.39;98316.31;102238;1299;76965;-19
2022/11/19 11:10:41;;;;;;;10.30;6.00;;;;;;;-1.48;81.06;98323.77;102013;1295;75474;-19
2022/11/19 11:16:19;;;;;;;7.30;5.50;;;;;;;-2.24;83.18;98337.51;101996;1299;61604;-19
2022/11/19 11:18:47;;;;;;;9.00;5.60;;;;;;;-2.18;83.32;98328.80;102042;1294;75424;-19
2022/11/19 11:21:30;;;;;;;10.10;7.30;;;;;;;-2.04;83.06;98342.14;102353;1291;75737;-19
2022/11/19 11:23:57;;;;;;;8.90;5.40;;;;;;;-1.78;82.26;98353.84;102114;1299;74163;-19
2022/11/19 11:26:26;;;;;;;10.50;6.90;;;;;;;-1.77;81.81;98358.89;102148;1299;61135;-19
2022/11/19 11:29:12;;;;;;;9.90;5.80;;;;;;;-1.85;82.25;98358.37;101922;1297;61876;-19
2022/11/19 11:31:44;;;;;;;7.40;5.40;;;;;;;-1.86;82.19;98372.52;102021;1301;74602;-18
2022/11/19 11:34:14;;;;;;;8.00;5.00;;;;;;;-1.52;82.01;98378.95;102191;1299;76528;-19
2022/11/19 11:36:42;;;;;;;10.30;5.90;;;;;;;-0.96;79.59;98383.67;102158;1294;74953;-19
2022/11/19 11:39:28;;;;;;;12.60;7.80;;;;;;;-1.02;78.85;98374.23;102261;1293;62054;-20
2022/11/19 11:41:56;;;;;;;9.00;6.10;;;;;;;-1.12;78.98;98386.77;102122;1299;62075;-19
2022/11/19 11:44:35;;;;;;;7.40;4.50;;;;;;;-1.25;79.34;98385.63;102148;1299;75735;-19
2022/11/19 11:47:13;;;;;;;11.90;6.90;;;;;;;-1.40;79.70;98392.06;102026;1299;77276;-19
2022/11/19 11:49:45;;;;;;;7.80;5.20;;;;;;;-1.57;81.13;98403.02;102000;1302;74099;-19
2022/11/19 11:52:13;;;;;;;10.60;6.10;;;;;;;-1.46;81.45;98401.34;101967;1299;61155;-19
2022/11/19 11:54:54;;;;;;;10.40;6.70;;;;;;;-1.12;79.76;98396.48;102034;1305;62757;-19
2022/11/19 11:57:24;;;;;;;8.70;3.70;;;;;;;-1.25;79.47;98407.60;102145;1301;76394;-19
2022/11/19 11:59:51;;;;;;;9.90;6.30;;;;;;;-1.28;79.48;98412.84;102039;1302;76592;-19
2022/11/19 12:02:32;;;;;;;12.00;7.10;;;;;;;-1.53;80.34;98416.46;102247;1302;73157;-19
2022/11/19 12:05:04;;;;;;;11.10;7.30;;;;;;;-1.82;81.11;98412.53;102303;1294;61939;-19
2022/11/19 12:07:45;;;;;;;6.20;4.30;;;;;;;-1.85;81.88;98423.02;102173;1301;61877;-18
2022/11/19 12:10:34;;;;;;;8.10;5.90;;;;;;;-1.43;80.89;98425.23;102290;1293;76168;-19
2022/11/19 12:13:40;;;;;;;7.20;5.20;;;;;;;-1.20;78.80;98430.38;102296;1298;76657;-19